Richardson's Hourly Summary for Thursday, March 16, 2017
Hour Temp
(f)
RH
(%)
Solar Rad.
(MJ/m2)
Rainfall
(in)
Wind
(mph)
3/16/2017 12:00 AM 53 62 0 0 3.29
3/16/2017 1:00 AM 53 63 0 0 4.1
3/16/2017 2:00 AM 51 66 0 0 2.7
3/16/2017 3:00 AM 50 70 0 0 3.96
3/16/2017 4:00 AM 50 73 0 0 5.88
3/16/2017 5:00 AM 51 76 0 0 6.66
3/16/2017 6:00 AM 53 82 0 0 8.01
3/16/2017 7:00 AM 54 86 0 0 7.11
3/16/2017 8:00 AM 55 87 0 0 6.58
3/16/2017 9:00 AM 55 87 0.09 0 6.27
3/16/2017 10:00 AM 56 86 0.2 0 6.29
3/16/2017 11:00 AM 57 84 0.34 0 7.15
3/16/2017 12:00 PM 58 82 0.5 0 7.87
3/16/2017 1:00 PM 59 77 0.64 0 6.82
3/16/2017 2:00 PM 62 73 0.85 0 8.36
3/16/2017 3:00 PM 63 73 0.64 0 7.93
3/16/2017 4:00 PM 65 71 0.61 0 7.11
3/16/2017 5:00 PM 68 65 0.95 0 8.81
3/16/2017 6:00 PM 70 64 0.85 0 9.57
3/16/2017 7:00 PM 70 63 0.35 0 9.05
3/16/2017 8:00 PM 70 64 0.05 0 8.41
3/16/2017 9:00 PM 68 68 0 0 7.45
3/16/2017 10:00 PM 67 70 0 0 8.53
3/16/2017 11:00 PM 66 75 0 0 7.9
Data Summary 59 73 6.07 0.00 6.91